sensor_id;sensor_type;location;lat;lon;timestamp;pressure;altitude;pressure_sealevel;temperature;humidity
56040;BME280;43937;41.366;2.072;2023-04-12T00:00:41;100724.41;;;17.33;58.06
56040;BME280;43937;41.366;2.072;2023-04-12T00:03:08;100710.66;;;17.33;58.22
56040;BME280;43937;41.366;2.072;2023-04-12T00:09:12;100695.66;;;17.23;58.23
56040;BME280;43937;41.366;2.072;2023-04-12T00:11:37;100686.34;;;17.17;58.29
56040;BME280;43937;41.366;2.072;2023-04-12T00:14:03;100683.34;;;17.18;58.73
56040;BME280;43937;41.366;2.072;2023-04-12T00:16:28;100694.81;;;17.22;58.68
56040;BME280;43937;41.366;2.072;2023-04-12T00:18:54;100655.88;;;17.05;58.36
56040;BME280;43937;41.366;2.072;2023-04-12T00:23:21;100661.56;;;16.90;58.85
56040;BME280;43937;41.366;2.072;2023-04-12T00:25:46;100678.91;;;16.84;58.03
56040;BME280;43937;41.366;2.072;2023-04-12T00:29:58;100672.28;;;16.65;58.03
56040;BME280;43937;41.366;2.072;2023-04-12T00:34:33;100664.63;;;16.47;57.72
56040;BME280;43937;41.366;2.072;2023-04-12T00:38:28;100653.63;;;16.34;56.99
56040;BME280;43937;41.366;2.072;2023-04-12T00:42:04;100620.28;;;15.89;57.32
56040;BME280;43937;41.366;2.072;2023-04-12T00:45:40;100649.88;;;16.00;56.92
56040;BME280;43937;41.366;2.072;2023-04-12T00:56:03;100649.00;;;15.93;55.79
56040;BME280;43937;41.366;2.072;2023-04-12T01:13:39;100600.91;;;15.63;60.71
56040;BME280;43937;41.366;2.072;2023-04-12T01:22:23;100629.25;;;15.70;63.30
56040;BME280;43937;41.366;2.072;2023-04-12T01:26:58;100616.44;;;15.49;64.88
56040;BME280;43937;41.366;2.072;2023-04-12T01:29:26;100602.94;;;15.47;64.81
56040;BME280;43937;41.366;2.072;2023-04-12T01:31:59;100588.97;;;15.42;64.86
56040;BME280;43937;41.366;2.072;2023-04-12T01:34:30;100590.16;;;15.26;64.78
56040;BME280;43937;41.366;2.072;2023-04-12T01:38:28;100569.06;;;15.27;63.56
56040;BME280;43937;41.366;2.072;2023-04-12T01:44:57;100591.91;;;15.34;62.82
56040;BME280;43937;41.366;2.072;2023-04-12T01:47:23;100593.66;;;15.14;62.64
56040;BME280;43937;41.366;2.072;2023-04-12T01:55:17;100578.66;;;15.09;63.37
56040;BME280;43937;41.366;2.072;2023-04-12T02:00:29;100567.13;;;15.21;62.02
56040;BME280;43937;41.366;2.072;2023-04-12T02:04:04;100574.97;;;15.30;62.00
56040;BME280;43937;41.366;2.072;2023-04-12T02:06:31;100574.94;;;15.24;62.11
56040;BME280;43937;41.366;2.072;2023-04-12T02:09:00;100563.19;;;15.30;62.47
56040;BME280;43937;41.366;2.072;2023-04-12T02:11:26;100549.63;;;15.22;62.72
56040;BME280;43937;41.366;2.072;2023-04-12T02:13:52;100544.53;;;15.19;63.34
56040;BME280;43937;41.366;2.072;2023-04-12T02:18:26;100542.84;;;15.18;63.21
56040;BME280;43937;41.366;2.072;2023-04-12T02:23:00;100546.16;;;15.06;63.27
56040;BME280;43937;41.366;2.072;2023-04-12T02:26:06;100560.94;;;15.12;63.57
56040;BME280;43937;41.366;2.072;2023-04-12T02:33:57;100510.75;;;14.77;64.39
56040;BME280;43937;41.366;2.072;2023-04-12T02:36:33;100533.66;;;14.97;64.26
56040;BME280;43937;41.366;2.072;2023-04-12T02:47:43;100521.41;;;14.93;61.65
56040;BME280;43937;41.366;2.072;2023-04-12T02:51:50;100522.69;;;14.97;60.82
56040;BME280;43937;41.366;2.072;2023-04-12T02:54:16;100511.91;;;14.89;59.22
56040;BME280;43937;41.366;2.072;2023-04-12T02:56:41;100499.22;;;14.88;57.88
56040;BME280;43937;41.366;2.072;2023-04-12T02:59:08;100494.88;;;15.00;57.22
56040;BME280;43937;41.366;2.072;2023-04-12T03:05:02;100500.84;;;15.10;56.39
56040;BME280;43937;41.366;2.072;2023-04-12T03:11:05;100480.75;;;15.03;55.28
56040;BME280;43937;41.366;2.072;2023-04-12T03:14:21;100481.41;;;15.05;55.04
56040;BME280;43937;41.366;2.072;2023-04-12T03:16:46;100453.69;;;14.87;55.16
56040;BME280;43937;41.366;2.072;2023-04-12T03:22:28;100465.44;;;14.74;56.96
56040;BME280;43937;41.366;2.072;2023-04-12T03:26:34;100472.16;;;14.72;61.27
56040;BME280;43937;41.366;2.072;2023-04-12T03:29:20;100426.03;;;14.47;62.61
56040;BME280;43937;41.366;2.072;2023-04-12T03:31:46;100458.59;;;14.63;64.31
56040;BME280;43937;41.366;2.072;2023-04-12T03:34:11;100459.25;;;14.65;65.55
56040;BME280;43937;41.366;2.072;2023-04-12T03:38:42;100448.19;;;14.52;67.18
56040;BME280;43937;41.366;2.072;2023-04-12T03:41:07;100456.47;;;14.59;67.29
56040;BME280;43937;41.366;2.072;2023-04-12T03:47:23;100451.09;;;14.51;67.44
56040;BME280;43937;41.366;2.072;2023-04-12T03:53:05;100422.41;;;14.18;68.40
56040;BME280;43937;41.366;2.072;2023-04-12T03:57:07;100399.28;;;13.93;69.35
56040;BME280;43937;41.366;2.072;2023-04-12T04:03:02;100404.44;;;14.09;68.94
56040;BME280;43937;41.366;2.072;2023-04-12T04:06:25;100424.56;;;14.23;68.27
56040;BME280;43937;41.366;2.072;2023-04-12T04:12:10;100437.56;;;14.14;68.96
56040;BME280;43937;41.366;2.072;2023-04-12T04:20:51;100420.88;;;14.09;69.47
56040;BME280;43937;41.366;2.072;2023-04-12T04:23:17;100410.88;;;13.95;69.47
56040;BME280;43937;41.366;2.072;2023-04-12T04:25:42;100418.34;;;14.08;69.77
56040;BME280;43937;41.366;2.072;2023-04-12T04:30:49;100414.19;;;13.90;70.21
56040;BME280;43937;41.366;2.072;2023-04-12T04:34:40;100403.03;;;13.70;71.23
56040;BME280;43937;41.366;2.072;2023-04-12T04:37:49;100414.47;;;13.74;71.95
56040;BME280;43937;41.366;2.072;2023-04-12T04:43:37;100412.91;;;13.65;73.59
56040;BME280;43937;41.366;2.072;2023-04-12T04:46:04;100399.13;;;13.58;73.44
56040;BME280;43937;41.366;2.072;2023-04-12T04:53:08;100371.09;;;13.49;73.38
56040;BME280;43937;41.366;2.072;2023-04-12T04:56:20;100336.09;;;13.23;74.04
56040;BME280;43937;41.366;2.072;2023-04-12T05:00:57;100365.00;;;13.75;73.30
56040;BME280;43937;41.366;2.072;2023-04-12T05:03:24;100388.97;;;13.95;73.47
56040;BME280;43937;41.366;2.072;2023-04-12T05:05:56;100394.72;;;14.07;73.64
56040;BME280;43937;41.366;2.072;2023-04-12T05:10:32;100406.56;;;14.35;72.19
56040;BME280;43937;41.366;2.072;2023-04-12T05:19:36;100347.53;;;14.26;72.72
56040;BME280;43937;41.366;2.072;2023-04-12T05:23:51;100378.97;;;14.37;73.92
56040;BME280;43937;41.366;2.072;2023-04-12T05:26:43;100378.97;;;14.65;72.46
56040;BME280;43937;41.366;2.072;2023-04-12T05:37:53;100382.41;;;14.74;70.09
56040;BME280;43937;41.366;2.072;2023-04-12T05:44:07;100366.41;;;14.84;68.49
56040;BME280;43937;41.366;2.072;2023-04-12T05:46:32;100367.34;;;15.04;67.41
56040;BME280;43937;41.366;2.072;2023-04-12T05:50:04;100377.84;;;14.94;66.48
56040;BME280;43937;41.366;2.072;2023-04-12T05:59:11;100357.78;;;14.87;65.03
56040;BME280;43937;41.366;2.072;2023-04-12T06:03:35;100349.06;;;14.70;65.20
56040;BME280;43937;41.366;2.072;2023-04-12T06:06:06;100362.69;;;14.57;65.73
56040;BME280;43937;41.366;2.072;2023-04-12T06:08:32;100298.28;;;14.33;65.93
56040;BME280;43937;41.366;2.072;2023-04-12T06:14:34;100339.75;;;18.37;54.96
56040;BME280;43937;41.366;2.072;2023-04-12T06:17:43;100345.78;;;20.50;49.24
56040;BME280;43937;41.366;2.072;2023-04-12T06:20:52;100350.78;;;21.86;45.20
56040;BME280;43937;41.366;2.072;2023-04-12T06:23:41;100360.25;;;21.73;45.50
56040;BME280;43937;41.366;2.072;2023-04-12T06:32:05;100347.69;;;25.15;38.68
56040;BME280;43937;41.366;2.072;2023-04-12T06:36:41;100341.97;;;28.71;33.00
56040;BME280;43937;41.366;2.072;2023-04-12T06:43:40;100352.41;;;31.01;29.49
56040;BME280;43937;41.366;2.072;2023-04-12T06:51:07;100354.91;;;31.03;28.49
56040;BME280;43937;41.366;2.072;2023-04-12T07:01:04;100308.25;;;31.88;27.56
56040;BME280;43937;41.366;2.072;2023-04-12T07:03:30;100318.47;;;31.84;27.52
56040;BME280;43937;41.366;2.072;2023-04-12T07:07:17;100309.38;;;32.64;26.89
56040;BME280;43937;41.366;2.072;2023-04-12T07:10:33;100291.84;;;31.45;28.01
56040;BME280;43937;41.366;2.072;2023-04-12T07:13:00;100292.00;;;31.13;28.03
56040;BME280;43937;41.366;2.072;2023-04-12T07:16:07;100299.91;;;30.55;28.69
56040;BME280;43937;41.366;2.072;2023-04-12T07:21:37;100300.34;;;31.90;27.25
56040;BME280;43937;41.366;2.072;2023-04-12T07:25:00;100294.69;;;33.50;25.22
56040;BME280;43937;41.366;2.072;2023-04-12T07:28:39;100284.28;;;34.79;23.16
56040;BME280;43937;41.366;2.072;2023-04-12T07:33:33;100291.84;;;34.02;23.69
56040;BME280;43937;41.366;2.072;2023-04-12T07:39:54;100301.44;;;34.01;23.02
56040;BME280;43937;41.366;2.072;2023-04-12T07:42:28;100280.69;;;34.14;23.50
56040;BME280;43937;41.366;2.072;2023-04-12T07:44:54;100283.75;;;33.57;24.22
56040;BME280;43937;41.366;2.072;2023-04-12T07:55:02;100255.81;;;35.35;22.70
56040;BME280;43937;41.366;2.072;2023-04-12T07:59:30;100262.78;;;34.49;23.08
56040;BME280;43937;41.366;2.072;2023-04-12T08:06:04;100246.66;;;35.92;20.98
56040;BME280;43937;41.366;2.072;2023-04-12T08:14:15;100241.53;;;34.04;22.66
56040;BME280;43937;41.366;2.072;2023-04-12T08:25:44;100243.41;;;34.98;22.56
56040;BME280;43937;41.366;2.072;2023-04-12T08:28:10;100226.72;;;35.55;21.54
56040;BME280;43937;41.366;2.072;2023-04-12T08:32:31;100237.03;;;36.06;21.27
56040;BME280;43937;41.366;2.072;2023-04-12T08:39:02;100191.44;;;34.22;21.81
56040;BME280;43937;41.366;2.072;2023-04-12T08:49:03;100202.72;;;33.49;23.52
56040;BME280;43937;41.366;2.072;2023-04-12T08:57:31;100197.31;;;32.52;25.31
56040;BME280;43937;41.366;2.072;2023-04-12T09:05:29;100190.22;;;29.92;28.49
56040;BME280;43937;41.366;2.072;2023-04-12T09:08:12;100195.63;;;28.13;30.87
56040;BME280;43937;41.366;2.072;2023-04-12T09:10:38;100197.00;;;27.57;30.96
56040;BME280;43937;41.366;2.072;2023-04-12T09:15:13;100181.28;;;27.66;32.21
56040;BME280;43937;41.366;2.072;2023-04-12T09:18:08;100186.06;;;27.60;32.76
56040;BME280;43937;41.366;2.072;2023-04-12T09:31:37;100149.00;;;27.15;37.72
56040;BME280;43937;41.366;2.072;2023-04-12T09:35:35;100165.19;;;27.13;39.02
56040;BME280;43937;41.366;2.072;2023-04-12T09:40:15;100131.13;;;27.11;39.73
56040;BME280;43937;41.366;2.072;2023-04-12T09:42:53;100161.16;;;26.90;40.96
56040;BME280;43937;41.366;2.072;2023-04-12T09:45:23;100165.75;;;26.71;41.80
56040;BME280;43937;41.366;2.072;2023-04-12T09:48:37;100110.31;;;26.54;41.84
56040;BME280;43937;41.366;2.072;2023-04-12T09:51:03;100147.03;;;27.11;41.33
56040;BME280;43937;41.366;2.072;2023-04-12T10:00:03;100119.28;;;26.90;41.31
56040;BME280;43937;41.366;2.072;2023-04-12T10:02:33;100100.00;;;26.89;40.73
56040;BME280;43937;41.366;2.072;2023-04-12T10:05:19;100123.47;;;26.93;40.36
56040;BME280;43937;41.366;2.072;2023-04-12T10:08:36;100119.41;;;26.70;42.73
56040;BME280;43937;41.366;2.072;2023-04-12T10:11:26;100117.44;;;27.15;40.28
56040;BME280;43937;41.366;2.072;2023-04-12T10:13:53;100099.84;;;26.75;41.53
56040;BME280;43937;41.366;2.072;2023-04-12T10:16:21;100112.19;;;26.64;41.65
56040;BME280;43937;41.366;2.072;2023-04-12T10:18:47;100110.41;;;26.28;43.48
56040;BME280;43937;41.366;2.072;2023-04-12T10:21:13;100103.88;;;26.48;42.88
56040;BME280;43937;41.366;2.072;2023-04-12T10:26:14;100105.81;;;26.58;43.16
56040;BME280;43937;41.366;2.072;2023-04-12T10:29:33;100101.28;;;26.13;43.61
56040;BME280;43937;41.366;2.072;2023-04-12T10:36:00;100090.75;;;25.99;44.66
56040;BME280;43937;41.366;2.072;2023-04-12T10:39:07;100093.78;;;26.03;43.72
56040;BME280;43937;41.366;2.072;2023-04-12T10:45:47;100079.47;;;26.25;43.74
56040;BME280;43937;41.366;2.072;2023-04-12T10:50:22;100070.72;;;25.72;45.94
56040;BME280;43937;41.366;2.072;2023-04-12T10:53:21;100057.22;;;26.59;43.68
56040;BME280;43937;41.366;2.072;2023-04-12T10:57:43;100064.53;;;26.89;43.52
56040;BME280;43937;41.366;2.072;2023-04-12T11:02:14;100034.41;;;26.86;41.93
56040;BME280;43937;41.366;2.072;2023-04-12T11:05:07;100043.31;;;26.54;43.63
56040;BME280;43937;41.366;2.072;2023-04-12T11:07:41;100028.94;;;26.71;42.73
56040;BME280;43937;41.366;2.072;2023-04-12T11:12:51;100032.06;;;26.99;42.86
56040;BME280;43937;41.366;2.072;2023-04-12T11:15:56;100023.50;;;26.50;44.06
56040;BME280;43937;41.366;2.072;2023-04-12T11:27:51;99986.56;;;26.69;42.92
56040;BME280;43937;41.366;2.072;2023-04-12T11:36:10;100004.38;;;26.28;44.93
56040;BME280;43937;41.366;2.072;2023-04-12T11:39:26;99980.03;;;26.00;45.42
56040;BME280;43937;41.366;2.072;2023-04-12T11:42:38;99980.81;;;25.41;46.51
56040;BME280;43937;41.366;2.072;2023-04-12T11:46:53;99980.84;;;26.06;44.92
56040;BME280;43937;41.366;2.072;2023-04-12T11:49:22;99985.16;;;25.72;46.12
56040;BME280;43937;41.366;2.072;2023-04-12T11:51:48;99989.44;;;25.44;46.78
56040;BME280;43937;41.366;2.072;2023-04-12T11:56:12;99971.75;;;25.74;46.38
56040;BME280;43937;41.366;2.072;2023-04-12T12:02:38;99946.59;;;25.30;46.63
56040;BME280;43937;41.366;2.072;2023-04-12T12:05:04;99981.44;;;25.97;45.91
56040;BME280;43937;41.366;2.072;2023-04-12T12:10:17;99973.66;;;26.73;43.27
56040;BME280;43937;41.366;2.072;2023-04-12T12:17:54;99951.44;;;26.63;43.94
56040;BME280;43937;41.366;2.072;2023-04-12T12:20:20;99949.16;;;26.65;44.18
56040;BME280;43937;41.366;2.072;2023-04-12T12:25:37;99943.00;;;26.97;43.76
56040;BME280;43937;41.366;2.072;2023-04-12T12:29:53;99944.59;;;27.03;42.67
56040;BME280;43937;41.366;2.072;2023-04-12T12:32:19;99929.84;;;26.98;43.24
56040;BME280;43937;41.366;2.072;2023-04-12T12:36:35;99915.84;;;27.03;42.77
56040;BME280;43937;41.366;2.072;2023-04-12T12:39:05;99937.63;;;27.54;42.24
56040;BME280;43937;41.366;2.072;2023-04-12T12:48:26;99929.53;;;27.28;42.41
56040;BME280;43937;41.366;2.072;2023-04-12T12:50:52;99918.97;;;27.68;41.19
56040;BME280;43937;41.366;2.072;2023-04-12T12:53:17;99914.50;;;27.48;41.54
56040;BME280;43937;41.366;2.072;2023-04-12T13:01:03;99912.91;;;27.18;36.02
56040;BME280;43937;41.366;2.072;2023-04-12T13:03:32;99900.59;;;28.05;27.08
56040;BME280;43937;41.366;2.072;2023-04-12T13:05:57;99925.25;;;29.01;23.84
56040;BME280;43937;41.366;2.072;2023-04-12T13:10:44;99868.69;;;28.99;21.67
56040;BME280;43937;41.366;2.072;2023-04-12T13:15:20;99908.78;;;29.69;20.52
56040;BME280;43937;41.366;2.072;2023-04-12T13:19:03;99908.91;;;29.63;20.06
56040;BME280;43937;41.366;2.072;2023-04-12T13:21:29;99909.19;;;29.62;20.10
56040;BME280;43937;41.366;2.072;2023-04-12T13:23:55;99889.66;;;29.71;20.09
56040;BME280;43937;41.366;2.072;2023-04-12T13:26:21;99905.78;;;30.01;20.03
56040;BME280;43937;41.366;2.072;2023-04-12T13:30:59;99912.78;;;29.90;19.41
56040;BME280;43937;41.366;2.072;2023-04-12T13:33:25;99918.53;;;29.71;19.26
56040;BME280;43937;41.366;2.072;2023-04-12T13:35:54;99891.19;;;29.77;18.20
56040;BME280;43937;41.366;2.072;2023-04-12T13:38:19;99905.50;;;29.89;18.29
56040;BME280;43937;41.366;2.072;2023-04-12T13:41:12;99900.03;;;30.06;18.57
56040;BME280;43937;41.366;2.072;2023-04-12T13:46:09;99920.50;;;29.71;18.05
56040;BME280;43937;41.366;2.072;2023-04-12T13:49:18;99875.63;;;29.71;18.38
56040;BME280;43937;41.366;2.072;2023-04-12T13:53:14;99905.09;;;29.96;17.99
56040;BME280;43937;41.366;2.072;2023-04-12T13:55:46;99907.66;;;29.92;17.23
56040;BME280;43937;41.366;2.072;2023-04-12T13:58:14;99877.09;;;29.68;16.71
56040;BME280;43937;41.366;2.072;2023-04-12T14:00:56;99904.00;;;29.69;17.90
56040;BME280;43937;41.366;2.072;2023-04-12T14:03:23;99887.38;;;29.73;17.38
56040;BME280;43937;41.366;2.072;2023-04-12T14:08:55;99887.19;;;29.92;16.64
56040;BME280;43937;41.366;2.072;2023-04-12T14:11:22;99873.97;;;29.70;17.38
56040;BME280;43937;41.366;2.072;2023-04-12T14:13:48;99859.84;;;29.47;17.46
56040;BME280;43937;41.366;2.072;2023-04-12T14:16:13;99874.78;;;29.84;17.41
56040;BME280;43937;41.366;2.072;2023-04-12T14:19:50;99856.66;;;30.12;17.46
56040;BME280;43937;41.366;2.072;2023-04-12T14:22:18;99860.50;;;30.17;17.03
56040;BME280;43937;41.366;2.072;2023-04-12T14:26:55;99808.94;;;29.67;16.23
56040;BME280;43937;41.366;2.072;2023-04-12T14:29:21;99859.47;;;30.12;16.32
56040;BME280;43937;41.366;2.072;2023-04-12T14:33:00;99850.50;;;30.02;16.06
56040;BME280;43937;41.366;2.072;2023-04-12T14:35:25;99875.16;;;30.13;15.27
56040;BME280;43937;41.366;2.072;2023-04-12T14:37:51;99888.59;;;30.39;16.00
56040;BME280;43937;41.366;2.072;2023-04-12T14:40:17;99862.13;;;30.31;15.41
56040;BME280;43937;41.366;2.072;2023-04-12T14:49:31;99832.97;;;30.41;14.99
56040;BME280;43937;41.366;2.072;2023-04-12T14:51:56;99863.41;;;30.79;14.74
56040;BME280;43937;41.366;2.072;2023-04-12T14:54:22;99870.38;;;30.82;14.65
56040;BME280;43937;41.366;2.072;2023-04-12T14:56:47;99844.63;;;30.34;14.55
56040;BME280;43937;41.366;2.072;2023-04-12T15:01:49;99855.81;;;29.89;15.36
56040;BME280;43937;41.366;2.072;2023-04-12T15:05:40;99873.97;;;29.70;15.74
56040;BME280;43937;41.366;2.072;2023-04-12T15:08:05;99874.31;;;29.40;16.60
56040;BME280;43937;41.366;2.072;2023-04-12T15:15:36;99897.28;;;29.15;15.75
56040;BME280;43937;41.366;2.072;2023-04-12T15:18:25;99909.59;;;29.14;16.10
56040;BME280;43937;41.366;2.072;2023-04-12T15:20:51;99899.63;;;29.08;16.21
56040;BME280;43937;41.366;2.072;2023-04-12T15:23:16;99907.13;;;29.26;16.33
56040;BME280;43937;41.366;2.072;2023-04-12T15:25:59;99920.03;;;28.81;15.53
56040;BME280;43937;41.366;2.072;2023-04-12T15:30:26;99927.66;;;28.61;17.15
56040;BME280;43937;41.366;2.072;2023-04-12T15:32:52;99928.66;;;28.51;17.18
56040;BME280;43937;41.366;2.072;2023-04-12T15:35:17;99916.94;;;28.49;17.33
56040;BME280;43937;41.366;2.072;2023-04-12T15:37:43;99897.97;;;28.27;17.80
56040;BME280;43937;41.366;2.072;2023-04-12T15:40:09;99925.78;;;28.38;18.18
56040;BME280;43937;41.366;2.072;2023-04-12T15:47:50;99934.97;;;28.05;20.28
56040;BME280;43937;41.366;2.072;2023-04-12T15:50:18;99943.44;;;28.19;19.79
56040;BME280;43937;41.366;2.072;2023-04-12T15:53:46;99944.75;;;28.08;19.52
56040;BME280;43937;41.366;2.072;2023-04-12T15:58:39;99948.81;;;27.54;19.98
56040;BME280;43937;41.366;2.072;2023-04-12T16:01:37;99931.09;;;27.15;20.76
56040;BME280;43937;41.366;2.072;2023-04-12T16:04:03;99931.28;;;27.24;21.42
56040;BME280;43937;41.366;2.072;2023-04-12T16:06:29;99954.75;;;27.23;20.90
56040;BME280;43937;41.366;2.072;2023-04-12T16:08:59;99938.66;;;27.15;21.45
56040;BME280;43937;41.366;2.072;2023-04-12T16:13:48;99951.91;;;27.28;21.94
56040;BME280;43937;41.366;2.072;2023-04-12T16:17:49;99929.81;;;27.03;21.78
56040;BME280;43937;41.366;2.072;2023-04-12T16:20:18;99969.25;;;27.25;22.34
56040;BME280;43937;41.366;2.072;2023-04-12T16:24:12;99986.19;;;27.05;22.41
56040;BME280;43937;41.366;2.072;2023-04-12T16:31:06;99977.59;;;27.30;22.39
56040;BME280;43937;41.366;2.072;2023-04-12T16:33:33;99967.66;;;27.14;22.26
56040;BME280;43937;41.366;2.072;2023-04-12T16:35:58;99983.28;;;27.20;21.66
56040;BME280;43937;41.366;2.072;2023-04-12T16:39:49;99977.94;;;27.24;21.85
56040;BME280;43937;41.366;2.072;2023-04-12T16:45:02;99996.72;;;27.18;20.64
56040;BME280;43937;41.366;2.072;2023-04-12T16:47:29;99926.97;;;26.49;21.21
56040;BME280;43937;41.366;2.072;2023-04-12T16:49:54;99994.50;;;26.81;20.76
56040;BME280;43937;41.366;2.072;2023-04-12T16:53:22;100009.34;;;26.81;20.35
56040;BME280;43937;41.366;2.072;2023-04-12T16:55:47;100011.13;;;26.67;20.97
56040;BME280;43937;41.366;2.072;2023-04-12T16:59:30;99986.41;;;26.50;20.86
56040;BME280;43937;41.366;2.072;2023-04-12T17:02:58;100020.72;;;26.50;20.47
56040;BME280;43937;41.366;2.072;2023-04-12T17:05:23;100007.41;;;25.77;30.53
56040;BME280;43937;41.366;2.072;2023-04-12T17:12:48;100004.81;;;23.61;43.22
56040;BME280;43937;41.366;2.072;2023-04-12T17:15:16;100049.25;;;22.81;44.64
56040;BME280;43937;41.366;2.072;2023-04-12T17:17:52;100028.41;;;22.47;46.22
56040;BME280;43937;41.366;2.072;2023-04-12T17:20:19;100026.22;;;21.78;48.28
56040;BME280;43937;41.366;2.072;2023-04-12T17:22:46;99994.81;;;21.67;48.39
56040;BME280;43937;41.366;2.072;2023-04-12T17:26:48;100034.66;;;21.66;48.93
56040;BME280;43937;41.366;2.072;2023-04-12T17:29:14;100040.91;;;21.56;49.10
56040;BME280;43937;41.366;2.072;2023-04-12T17:31:39;100045.66;;;21.22;49.45
56040;BME280;43937;41.366;2.072;2023-04-12T17:34:06;100045.22;;;21.30;49.16
56040;BME280;43937;41.366;2.072;2023-04-12T17:36:32;100030.31;;;21.14;49.36
56040;BME280;43937;41.366;2.072;2023-04-12T17:38:59;100034.03;;;20.86;49.78
56040;BME280;43937;41.366;2.072;2023-04-12T17:44:35;100046.84;;;20.75;49.15
56040;BME280;43937;41.366;2.072;2023-04-12T17:48:07;100050.88;;;21.01;48.61
56040;BME280;43937;41.366;2.072;2023-04-12T17:52:27;100043.63;;;20.50;49.44
56040;BME280;43937;41.366;2.072;2023-04-12T17:55:06;100041.00;;;20.43;50.22
56040;BME280;43937;41.366;2.072;2023-04-12T18:00:43;100048.59;;;20.36;49.88
56040;BME280;43937;41.366;2.072;2023-04-12T18:05:12;100026.09;;;20.44;49.35
56040;BME280;43937;41.366;2.072;2023-04-12T18:07:38;100054.34;;;20.46;48.97
56040;BME280;43937;41.366;2.072;2023-04-12T18:10:11;100047.19;;;20.33;48.51
56040;BME280;43937;41.366;2.072;2023-04-12T18:16:41;100074.81;;;20.62;48.34
56040;BME280;43937;41.366;2.072;2023-04-12T18:19:30;100078.66;;;20.32;48.67
56040;BME280;43937;41.366;2.072;2023-04-12T18:21:56;100080.38;;;20.33;48.09
56040;BME280;43937;41.366;2.072;2023-04-12T18:24:21;100078.94;;;20.31;48.79
56040;BME280;43937;41.366;2.072;2023-04-12T18:26:47;100079.53;;;20.62;47.96
56040;BME280;43937;41.366;2.072;2023-04-12T18:29:12;100070.13;;;20.34;48.63
56040;BME280;43937;41.366;2.072;2023-04-12T18:31:41;100083.13;;;20.33;48.29
56040;BME280;43937;41.366;2.072;2023-04-12T18:34:07;100022.91;;;20.07;48.76
56040;BME280;43937;41.366;2.072;2023-04-12T18:36:33;100082.94;;;20.11;49.59
56040;BME280;43937;41.366;2.072;2023-04-12T18:39:01;100068.75;;;19.91;50.21
56040;BME280;43937;41.366;2.072;2023-04-12T18:45:10;100081.25;;;19.82;50.73
56040;BME280;43937;41.366;2.072;2023-04-12T18:47:36;100093.25;;;19.76;50.79
56040;BME280;43937;41.366;2.072;2023-04-12T18:50:04;100076.34;;;19.49;51.41
56040;BME280;43937;41.366;2.072;2023-04-12T18:52:29;100098.88;;;19.81;51.33
56040;BME280;43937;41.366;2.072;2023-04-12T18:54:55;100081.84;;;19.60;51.58
56040;BME280;43937;41.366;2.072;2023-04-12T18:57:21;100123.59;;;19.87;50.95
56040;BME280;43937;41.366;2.072;2023-04-12T18:59:47;100125.69;;;19.68;51.49
56040;BME280;43937;41.366;2.072;2023-04-12T19:02:13;100120.88;;;19.52;52.30
56040;BME280;43937;41.366;2.072;2023-04-12T19:04:39;100091.97;;;19.43;52.05
56040;BME280;43937;41.366;2.072;2023-04-12T19:08:39;100123.25;;;19.60;52.10
56040;BME280;43937;41.366;2.072;2023-04-12T19:13:20;100137.06;;;19.37;53.24
56040;BME280;43937;41.366;2.072;2023-04-12T19:15:46;100121.00;;;19.22;52.70
56040;BME280;43937;41.366;2.072;2023-04-12T19:18:33;100132.75;;;19.29;53.81
56040;BME280;43937;41.366;2.072;2023-04-12T19:21:04;100145.81;;;19.10;53.83
56040;BME280;43937;41.366;2.072;2023-04-12T19:23:30;100127.81;;;19.19;54.06
56040;BME280;43937;41.366;2.072;2023-04-12T19:27:36;100127.44;;;19.04;55.01
56040;BME280;43937;41.366;2.072;2023-04-12T19:30:02;100167.44;;;19.37;55.10
56040;BME280;43937;41.366;2.072;2023-04-12T19:32:28;100178.19;;;19.27;55.35
56040;BME280;43937;41.366;2.072;2023-04-12T19:34:54;100176.78;;;19.36;55.49
56040;BME280;43937;41.366;2.072;2023-04-12T19:39:01;100174.56;;;19.03;56.17
56040;BME280;43937;41.366;2.072;2023-04-12T19:41:27;100193.84;;;19.03;56.03
56040;BME280;43937;41.366;2.072;2023-04-12T19:44:48;100199.63;;;19.01;56.99
56040;BME280;43937;41.366;2.072;2023-04-12T19:47:16;100214.53;;;19.23;57.32
56040;BME280;43937;41.366;2.072;2023-04-12T19:49:41;100166.75;;;18.69;58.68
56040;BME280;43937;41.366;2.072;2023-04-12T19:52:08;100221.81;;;19.06;59.33
56040;BME280;43937;41.366;2.072;2023-04-12T19:54:36;100239.78;;;18.97;59.61
56040;BME280;43937;41.366;2.072;2023-04-12T19:57:20;100242.97;;;18.82;60.80
56040;BME280;43937;41.366;2.072;2023-04-12T20:00:05;100215.88;;;18.42;62.21
56040;BME280;43937;41.366;2.072;2023-04-12T20:02:42;100228.38;;;18.26;63.57
56040;BME280;43937;41.366;2.072;2023-04-12T20:05:08;100257.22;;;18.24;64.92
56040;BME280;43937;41.366;2.072;2023-04-12T20:07:34;100267.22;;;18.18;67.02
56040;BME280;43937;41.366;2.072;2023-04-12T20:12:13;100289.88;;;18.20;68.57
56040;BME280;43937;41.366;2.072;2023-04-12T20:14:49;100308.84;;;18.10;67.41
56040;BME280;43937;41.366;2.072;2023-04-12T20:20:22;100301.88;;;18.07;65.16
56040;BME280;43937;41.366;2.072;2023-04-12T20:24:32;100279.38;;;17.60;64.25
56040;BME280;43937;41.366;2.072;2023-04-12T20:28:38;100319.88;;;17.85;63.92
56040;BME280;43937;41.366;2.072;2023-04-12T20:33:05;100326.63;;;17.89;62.87
56040;BME280;43937;41.366;2.072;2023-04-12T20:35:32;100304.97;;;17.68;63.79
56040;BME280;43937;41.366;2.072;2023-04-12T20:37:58;100262.34;;;17.20;65.20
56040;BME280;43937;41.366;2.072;2023-04-12T20:45:08;100282.91;;;17.11;66.66
56040;BME280;43937;41.366;2.072;2023-04-12T20:47:35;100319.25;;;17.20;66.49
56040;BME280;43937;41.366;2.072;2023-04-12T20:50:02;100265.09;;;16.75;66.87
56040;BME280;43937;41.366;2.072;2023-04-12T20:54:08;100315.53;;;17.07;66.13